sensor_id;sensor_type;location;lat;lon;timestamp;P1;durP1;ratioP1;P2;durP2;ratioP2
21727;SDS011;11026;50.560;17.852;2023-05-10T00:01:30;16.83;;;9.50;;
21727;SDS011;11026;50.560;17.852;2023-05-10T00:03:57;17.52;;;9.05;;
21727;SDS011;11026;50.560;17.852;2023-05-10T00:06:25;16.40;;;9.48;;
21727;SDS011;11026;50.560;17.852;2023-05-10T00:08:52;15.05;;;9.77;;
21727;SDS011;11026;50.560;17.852;2023-05-10T00:11:20;15.40;;;8.90;;
21727;SDS011;11026;50.560;17.852;2023-05-10T00:13:49;15.98;;;9.70;;
21727;SDS011;11026;50.560;17.852;2023-05-10T00:16:16;16.38;;;9.35;;
21727;SDS011;11026;50.560;17.852;2023-05-10T00:18:46;18.00;;;8.85;;
21727;SDS011;11026;50.560;17.852;2023-05-10T00:21:19;19.13;;;8.90;;
21727;SDS011;11026;50.560;17.852;2023-05-10T00:23:46;14.63;;;9.13;;
21727;SDS011;11026;50.560;17.852;2023-05-10T00:26:14;15.27;;;8.85;;
21727;SDS011;11026;50.560;17.852;2023-05-10T00:28:41;14.73;;;8.68;;
21727;SDS011;11026;50.560;17.852;2023-05-10T00:31:09;15.57;;;8.30;;
21727;SDS011;11026;50.560;17.852;2023-05-10T00:33:36;16.83;;;9.10;;
21727;SDS011;11026;50.560;17.852;2023-05-10T00:36:04;17.58;;;9.10;;
21727;SDS011;11026;50.560;17.852;2023-05-10T00:38:36;15.68;;;9.18;;
21727;SDS011;11026;50.560;17.852;2023-05-10T00:41:03;15.57;;;8.85;;
21727;SDS011;11026;50.560;17.852;2023-05-10T00:43:31;17.42;;;8.82;;
21727;SDS011;11026;50.560;17.852;2023-05-10T00:45:58;14.27;;;8.35;;
21727;SDS011;11026;50.560;17.852;2023-05-10T00:48:28;15.98;;;8.90;;
21727;SDS011;11026;50.560;17.852;2023-05-10T00:50:56;17.13;;;8.57;;
21727;SDS011;11026;50.560;17.852;2023-05-10T00:53:23;14.27;;;8.35;;
21727;SDS011;11026;50.560;17.852;2023-05-10T00:55:51;15.18;;;8.77;;
21727;SDS011;11026;50.560;17.852;2023-05-10T00:58:20;15.07;;;8.23;;
21727;SDS011;11026;50.560;17.852;2023-05-10T01:00:47;15.40;;;8.90;;
21727;SDS011;11026;50.560;17.852;2023-05-10T01:03:17;15.07;;;8.68;;
21727;SDS011;11026;50.560;17.852;2023-05-10T01:05:45;15.25;;;8.98;;
21727;SDS011;11026;50.560;17.852;2023-05-10T01:08:12;11.93;;;7.88;;
21727;SDS011;11026;50.560;17.852;2023-05-10T01:10:42;13.88;;;8.75;;
21727;SDS011;11026;50.560;17.852;2023-05-10T01:13:09;14.70;;;8.65;;
21727;SDS011;11026;50.560;17.852;2023-05-10T01:15:37;13.07;;;8.05;;
21727;SDS011;11026;50.560;17.852;2023-05-10T01:18:06;14.23;;;8.60;;
21727;SDS011;11026;50.560;17.852;2023-05-10T01:20:38;16.63;;;8.77;;
21727;SDS011;11026;50.560;17.852;2023-05-10T01:28:56;13.30;;;8.43;;
21727;SDS011;11026;50.560;17.852;2023-05-10T01:34:42;15.80;;;8.00;;
21727;SDS011;11026;50.560;17.852;2023-05-10T01:37:13;14.40;;;7.97;;
21727;SDS011;11026;50.560;17.852;2023-05-10T01:39:52;15.68;;;8.30;;
21727;SDS011;11026;50.560;17.852;2023-05-10T01:42:28;16.05;;;8.63;;
21727;SDS011;11026;50.560;17.852;2023-05-10T01:45:37;16.25;;;8.43;;
21727;SDS011;11026;50.560;17.852;2023-05-10T01:48:06;14.05;;;8.70;;
21727;SDS011;11026;50.560;17.852;2023-05-10T01:50:41;15.77;;;8.75;;
21727;SDS011;11026;50.560;17.852;2023-05-10T01:53:10;16.17;;;8.82;;
21727;SDS011;11026;50.560;17.852;2023-05-10T01:55:49;14.05;;;8.23;;
21727;SDS011;11026;50.560;17.852;2023-05-10T01:58:27;12.75;;;7.65;;
21727;SDS011;11026;50.560;17.852;2023-05-10T02:00:57;15.40;;;8.57;;
21727;SDS011;11026;50.560;17.852;2023-05-10T02:03:29;14.43;;;7.78;;
21727;SDS011;11026;50.560;17.852;2023-05-10T02:05:59;16.00;;;8.68;;
21727;SDS011;11026;50.560;17.852;2023-05-10T02:08:26;11.45;;;7.95;;
21727;SDS011;11026;50.560;17.852;2023-05-10T02:10:55;16.85;;;8.30;;
21727;SDS011;11026;50.560;17.852;2023-05-10T02:13:25;13.50;;;8.23;;
21727;SDS011;11026;50.560;17.852;2023-05-10T02:15:54;13.85;;;8.35;;
21727;SDS011;11026;50.560;17.852;2023-05-10T02:18:23;11.70;;;7.90;;
21727;SDS011;11026;50.560;17.852;2023-05-10T02:20:55;13.15;;;8.18;;
21727;SDS011;11026;50.560;17.852;2023-05-10T02:23:24;15.13;;;8.82;;
21727;SDS011;11026;50.560;17.852;2023-05-10T02:25:53;14.15;;;8.30;;
21727;SDS011;11026;50.560;17.852;2023-05-10T02:28:23;12.57;;;8.15;;
21727;SDS011;11026;50.560;17.852;2023-05-10T02:30:53;13.98;;;8.18;;
21727;SDS011;11026;50.560;17.852;2023-05-10T02:33:23;13.18;;;7.85;;
21727;SDS011;11026;50.560;17.852;2023-05-10T02:35:52;10.95;;;7.53;;
21727;SDS011;11026;50.560;17.852;2023-05-10T02:38:20;14.25;;;8.35;;
21727;SDS011;11026;50.560;17.852;2023-05-10T02:40:51;12.43;;;8.02;;
21727;SDS011;11026;50.560;17.852;2023-05-10T02:43:20;14.02;;;8.13;;
21727;SDS011;11026;50.560;17.852;2023-05-10T02:45:50;13.43;;;7.90;;
21727;SDS011;11026;50.560;17.852;2023-05-10T02:48:18;13.88;;;8.52;;
21727;SDS011;11026;50.560;17.852;2023-05-10T02:50:45;12.40;;;8.10;;
21727;SDS011;11026;50.560;17.852;2023-05-10T02:53:18;11.98;;;8.27;;
21727;SDS011;11026;50.560;17.852;2023-05-10T02:55:56;14.70;;;8.57;;
21727;SDS011;11026;50.560;17.852;2023-05-10T02:58:27;13.95;;;8.45;;
21727;SDS011;11026;50.560;17.852;2023-05-10T03:00:55;14.50;;;8.80;;
21727;SDS011;11026;50.560;17.852;2023-05-10T03:03:22;16.23;;;8.40;;
21727;SDS011;11026;50.560;17.852;2023-05-10T03:05:49;15.88;;;8.30;;
21727;SDS011;11026;50.560;17.852;2023-05-10T03:08:17;12.70;;;9.05;;
21727;SDS011;11026;50.560;17.852;2023-05-10T03:10:47;15.38;;;8.98;;
21727;SDS011;11026;50.560;17.852;2023-05-10T03:13:29;13.00;;;8.55;;
21727;SDS011;11026;50.560;17.852;2023-05-10T03:16:08;13.90;;;9.40;;
21727;SDS011;11026;50.560;17.852;2023-05-10T03:21:17;15.00;;;9.30;;
21727;SDS011;11026;50.560;17.852;2023-05-10T03:23:50;14.02;;;9.02;;
21727;SDS011;11026;50.560;17.852;2023-05-10T03:26:23;14.65;;;8.98;;
21727;SDS011;11026;50.560;17.852;2023-05-10T03:28:53;14.88;;;9.50;;
21727;SDS011;11026;50.560;17.852;2023-05-10T03:31:21;14.52;;;9.18;;
21727;SDS011;11026;50.560;17.852;2023-05-10T03:33:50;16.25;;;9.82;;
21727;SDS011;11026;50.560;17.852;2023-05-10T03:36:20;14.30;;;9.60;;
21727;SDS011;11026;50.560;17.852;2023-05-10T03:38:48;13.80;;;9.40;;
21727;SDS011;11026;50.560;17.852;2023-05-10T03:41:16;18.52;;;8.93;;
21727;SDS011;11026;50.560;17.852;2023-05-10T03:43:45;18.63;;;10.02;;
21727;SDS011;11026;50.560;17.852;2023-05-10T03:46:12;14.82;;;9.93;;
21727;SDS011;11026;50.560;17.852;2023-05-10T03:48:40;18.90;;;10.32;;
21727;SDS011;11026;50.560;17.852;2023-05-10T03:51:07;20.45;;;10.02;;
21727;SDS011;11026;50.560;17.852;2023-05-10T03:53:36;18.45;;;11.02;;
21727;SDS011;11026;50.560;17.852;2023-05-10T03:56:03;16.45;;;10.40;;
21727;SDS011;11026;50.560;17.852;2023-05-10T03:58:31;18.90;;;10.27;;
21727;SDS011;11026;50.560;17.852;2023-05-10T04:01:04;18.65;;;11.02;;
21727;SDS011;11026;50.560;17.852;2023-05-10T04:06:00;20.55;;;11.18;;
21727;SDS011;11026;50.560;17.852;2023-05-10T04:08:34;18.45;;;11.25;;
21727;SDS011;11026;50.560;17.852;2023-05-10T04:11:08;18.05;;;9.88;;
21727;SDS011;11026;50.560;17.852;2023-05-10T04:13:36;19.75;;;10.65;;
21727;SDS011;11026;50.560;17.852;2023-05-10T04:16:04;19.48;;;9.90;;
21727;SDS011;11026;50.560;17.852;2023-05-10T04:18:32;17.65;;;10.07;;
21727;SDS011;11026;50.560;17.852;2023-05-10T04:21:00;17.33;;;11.18;;
21727;SDS011;11026;50.560;17.852;2023-05-10T04:23:27;21.63;;;10.82;;
21727;SDS011;11026;50.560;17.852;2023-05-10T04:26:02;17.70;;;10.20;;
21727;SDS011;11026;50.560;17.852;2023-05-10T04:28:29;19.35;;;11.05;;
21727;SDS011;11026;50.560;17.852;2023-05-10T04:31:03;16.60;;;10.05;;
21727;SDS011;11026;50.560;17.852;2023-05-10T04:33:34;19.27;;;10.32;;
21727;SDS011;11026;50.560;17.852;2023-05-10T04:36:02;18.80;;;10.60;;
21727;SDS011;11026;50.560;17.852;2023-05-10T04:38:30;19.73;;;10.73;;
21727;SDS011;11026;50.560;17.852;2023-05-10T04:41:05;18.67;;;10.88;;
21727;SDS011;11026;50.560;17.852;2023-05-10T04:43:33;20.23;;;10.23;;
21727;SDS011;11026;50.560;17.852;2023-05-10T04:46:01;18.73;;;10.63;;
21727;SDS011;11026;50.560;17.852;2023-05-10T04:48:29;17.75;;;10.30;;
21727;SDS011;11026;50.560;17.852;2023-05-10T04:50:57;15.07;;;9.80;;
21727;SDS011;11026;50.560;17.852;2023-05-10T04:53:24;19.05;;;9.93;;
21727;SDS011;11026;50.560;17.852;2023-05-10T04:55:52;15.63;;;10.15;;
21727;SDS011;11026;50.560;17.852;2023-05-10T04:58:19;17.52;;;9.18;;
21727;SDS011;11026;50.560;17.852;2023-05-10T05:00:48;18.40;;;10.23;;
21727;SDS011;11026;50.560;17.852;2023-05-10T05:03:15;20.95;;;9.70;;
21727;SDS011;11026;50.560;17.852;2023-05-10T05:05:43;15.55;;;9.00;;
21727;SDS011;11026;50.560;17.852;2023-05-10T05:08:11;18.90;;;10.50;;
21727;SDS011;11026;50.560;17.852;2023-05-10T05:10:41;17.55;;;9.63;;
21727;SDS011;11026;50.560;17.852;2023-05-10T05:13:08;15.98;;;9.35;;
21727;SDS011;11026;50.560;17.852;2023-05-10T05:15:36;17.73;;;8.95;;
21727;SDS011;11026;50.560;17.852;2023-05-10T05:18:03;18.15;;;9.20;;
21727;SDS011;11026;50.560;17.852;2023-05-10T05:20:34;14.10;;;9.10;;
21727;SDS011;11026;50.560;17.852;2023-05-10T05:23:01;17.00;;;9.25;;
21727;SDS011;11026;50.560;17.852;2023-05-10T05:25:30;14.93;;;8.73;;
21727;SDS011;11026;50.560;17.852;2023-05-10T05:27:58;14.50;;;9.02;;
21727;SDS011;11026;50.560;17.852;2023-05-10T05:30:26;17.00;;;8.55;;
21727;SDS011;11026;50.560;17.852;2023-05-10T05:32:53;15.35;;;8.85;;
21727;SDS011;11026;50.560;17.852;2023-05-10T05:35:21;19.98;;;8.95;;
21727;SDS011;11026;50.560;17.852;2023-05-10T05:37:48;14.82;;;8.93;;
21727;SDS011;11026;50.560;17.852;2023-05-10T05:40:16;17.35;;;9.15;;
21727;SDS011;11026;50.560;17.852;2023-05-10T05:42:45;16.80;;;9.05;;
21727;SDS011;11026;50.560;17.852;2023-05-10T05:45:15;19.48;;;9.75;;
21727;SDS011;11026;50.560;17.852;2023-05-10T05:47:42;15.60;;;8.63;;
21727;SDS011;11026;50.560;17.852;2023-05-10T05:50:10;17.55;;;9.40;;
21727;SDS011;11026;50.560;17.852;2023-05-10T05:52:37;18.98;;;9.15;;
21727;SDS011;11026;50.560;17.852;2023-05-10T05:55:04;19.45;;;8.55;;
21727;SDS011;11026;50.560;17.852;2023-05-10T05:57:32;18.98;;;8.30;;
21727;SDS011;11026;50.560;17.852;2023-05-10T06:00:00;15.20;;;8.13;;
21727;SDS011;11026;50.560;17.852;2023-05-10T06:02:29;14.48;;;8.45;;
21727;SDS011;11026;50.560;17.852;2023-05-10T06:04:57;13.43;;;8.35;;
21727;SDS011;11026;50.560;17.852;2023-05-10T06:07:27;13.32;;;7.97;;
21727;SDS011;11026;50.560;17.852;2023-05-10T06:09:54;13.52;;;7.47;;
21727;SDS011;11026;50.560;17.852;2023-05-10T06:12:22;12.85;;;6.68;;
21727;SDS011;11026;50.560;17.852;2023-05-10T06:14:49;8.07;;;6.07;;
21727;SDS011;11026;50.560;17.852;2023-05-10T06:17:17;9.57;;;6.68;;
21727;SDS011;11026;50.560;17.852;2023-05-10T06:19:44;9.27;;;5.93;;
21727;SDS011;11026;50.560;17.852;2023-05-10T06:22:12;10.38;;;6.00;;
21727;SDS011;11026;50.560;17.852;2023-05-10T06:24:40;10.77;;;5.70;;
21727;SDS011;11026;50.560;17.852;2023-05-10T06:27:07;8.63;;;5.80;;
21727;SDS011;11026;50.560;17.852;2023-05-10T06:29:34;8.18;;;5.57;;
21727;SDS011;11026;50.560;17.852;2023-05-10T06:32:03;7.70;;;5.30;;
21727;SDS011;11026;50.560;17.852;2023-05-10T06:34:30;6.25;;;5.13;;
21727;SDS011;11026;50.560;17.852;2023-05-10T06:36:58;8.55;;;5.30;;
21727;SDS011;11026;50.560;17.852;2023-05-10T06:39:25;7.13;;;5.10;;
21727;SDS011;11026;50.560;17.852;2023-05-10T06:41:53;5.97;;;5.20;;
21727;SDS011;11026;50.560;17.852;2023-05-10T06:44:21;8.25;;;5.50;;
21727;SDS011;11026;50.560;17.852;2023-05-10T06:46:48;6.80;;;5.10;;
21727;SDS011;11026;50.560;17.852;2023-05-10T06:49:16;7.97;;;5.25;;
21727;SDS011;11026;50.560;17.852;2023-05-10T06:51:45;6.55;;;5.38;;
21727;SDS011;11026;50.560;17.852;2023-05-10T06:54:12;6.43;;;4.88;;
21727;SDS011;11026;50.560;17.852;2023-05-10T06:56:39;9.77;;;5.22;;
21727;SDS011;11026;50.560;17.852;2023-05-10T06:59:06;7.40;;;4.93;;
21727;SDS011;11026;50.560;17.852;2023-05-10T07:01:34;10.63;;;5.10;;
21727;SDS011;11026;50.560;17.852;2023-05-10T07:04:01;7.78;;;5.03;;
21727;SDS011;11026;50.560;17.852;2023-05-10T07:06:30;6.32;;;4.22;;
21727;SDS011;11026;50.560;17.852;2023-05-10T07:09:00;9.88;;;5.35;;
21727;SDS011;11026;50.560;17.852;2023-05-10T07:11:34;6.00;;;4.78;;
21727;SDS011;11026;50.560;17.852;2023-05-10T07:14:02;5.35;;;4.53;;
21727;SDS011;11026;50.560;17.852;2023-05-10T07:16:30;6.03;;;5.10;;
21727;SDS011;11026;50.560;17.852;2023-05-10T07:19:04;5.93;;;5.00;;
21727;SDS011;11026;50.560;17.852;2023-05-10T07:21:32;5.97;;;5.00;;
21727;SDS011;11026;50.560;17.852;2023-05-10T07:23:59;10.57;;;4.82;;
21727;SDS011;11026;50.560;17.852;2023-05-10T07:26:33;7.00;;;4.88;;
21727;SDS011;11026;50.560;17.852;2023-05-10T07:29:01;6.40;;;4.70;;
21727;SDS011;11026;50.560;17.852;2023-05-10T07:31:30;7.38;;;5.22;;
21727;SDS011;11026;50.560;17.852;2023-05-10T07:34:03;8.70;;;5.18;;
21727;SDS011;11026;50.560;17.852;2023-05-10T07:36:31;7.22;;;4.40;;
21727;SDS011;11026;50.560;17.852;2023-05-10T07:39:00;7.47;;;4.80;;
21727;SDS011;11026;50.560;17.852;2023-05-10T07:41:27;4.68;;;4.10;;
21727;SDS011;11026;50.560;17.852;2023-05-10T07:43:55;6.43;;;4.45;;
21727;SDS011;11026;50.560;17.852;2023-05-10T07:46:22;5.95;;;4.60;;
21727;SDS011;11026;50.560;17.852;2023-05-10T07:48:51;8.48;;;4.53;;
21727;SDS011;11026;50.560;17.852;2023-05-10T07:51:19;6.50;;;4.80;;
21727;SDS011;11026;50.560;17.852;2023-05-10T07:53:47;4.63;;;3.30;;
21727;SDS011;11026;50.560;17.852;2023-05-10T07:56:20;6.00;;;4.75;;
21727;SDS011;11026;50.560;17.852;2023-05-10T07:58:48;5.25;;;4.38;;
21727;SDS011;11026;50.560;17.852;2023-05-10T08:01:16;5.47;;;4.40;;
21727;SDS011;11026;50.560;17.852;2023-05-10T08:03:43;6.68;;;4.70;;
21727;SDS011;11026;50.560;17.852;2023-05-10T08:06:11;6.32;;;5.03;;
21727;SDS011;11026;50.560;17.852;2023-05-10T08:08:39;7.70;;;4.47;;
21727;SDS011;11026;50.560;17.852;2023-05-10T08:11:07;7.47;;;4.65;;
21727;SDS011;11026;50.560;17.852;2023-05-10T08:13:34;5.63;;;4.57;;
21727;SDS011;11026;50.560;17.852;2023-05-10T08:16:02;7.90;;;4.93;;
21727;SDS011;11026;50.560;17.852;2023-05-10T08:18:29;6.88;;;4.47;;
21727;SDS011;11026;50.560;17.852;2023-05-10T08:20:58;10.40;;;4.88;;
21727;SDS011;11026;50.560;17.852;2023-05-10T08:23:25;8.05;;;5.13;;
21727;SDS011;11026;50.560;17.852;2023-05-10T08:25:53;7.55;;;4.60;;
21727;SDS011;11026;50.560;17.852;2023-05-10T08:28:23;6.43;;;4.57;;
21727;SDS011;11026;50.560;17.852;2023-05-10T08:30:54;5.70;;;4.85;;
21727;SDS011;11026;50.560;17.852;2023-05-10T08:33:23;5.95;;;4.60;;
21727;SDS011;11026;50.560;17.852;2023-05-10T08:35:53;5.25;;;4.55;;
21727;SDS011;11026;50.560;17.852;2023-05-10T08:38:22;6.45;;;4.90;;
21727;SDS011;11026;50.560;17.852;2023-05-10T08:40:50;7.20;;;4.43;;
21727;SDS011;11026;50.560;17.852;2023-05-10T08:46:01;8.32;;;4.75;;
21727;SDS011;11026;50.560;17.852;2023-05-10T08:48:31;7.28;;;5.18;;
21727;SDS011;11026;50.560;17.852;2023-05-10T08:51:01;5.25;;;3.95;;
21727;SDS011;11026;50.560;17.852;2023-05-10T08:53:30;7.10;;;4.97;;
21727;SDS011;11026;50.560;17.852;2023-05-10T08:56:00;7.22;;;5.05;;
21727;SDS011;11026;50.560;17.852;2023-05-10T08:58:29;7.00;;;4.95;;
21727;SDS011;11026;50.560;17.852;2023-05-10T09:00:57;7.95;;;5.47;;
21727;SDS011;11026;50.560;17.852;2023-05-10T09:03:38;6.40;;;4.85;;
21727;SDS011;11026;50.560;17.852;2023-05-10T09:06:06;10.25;;;5.85;;
21727;SDS011;11026;50.560;17.852;2023-05-10T09:08:33;8.25;;;5.28;;
21727;SDS011;11026;50.560;17.852;2023-05-10T09:11:03;6.63;;;5.15;;
21727;SDS011;11026;50.560;17.852;2023-05-10T09:13:31;8.65;;;5.45;;
21727;SDS011;11026;50.560;17.852;2023-05-10T09:15:59;9.98;;;5.65;;
21727;SDS011;11026;50.560;17.852;2023-05-10T09:18:45;7.63;;;5.57;;
21727;SDS011;11026;50.560;17.852;2023-05-10T09:21:13;9.32;;;5.43;;
21727;SDS011;11026;50.560;17.852;2023-05-10T09:23:47;7.28;;;5.68;;
21727;SDS011;11026;50.560;17.852;2023-05-10T09:26:16;8.07;;;6.05;;
21727;SDS011;11026;50.560;17.852;2023-05-10T09:28:50;6.27;;;5.13;;
21727;SDS011;11026;50.560;17.852;2023-05-10T09:31:19;11.05;;;5.28;;
21727;SDS011;11026;50.560;17.852;2023-05-10T09:33:48;6.00;;;4.50;;
21727;SDS011;11026;50.560;17.852;2023-05-10T09:36:16;5.22;;;4.47;;
21727;SDS011;11026;50.560;17.852;2023-05-10T09:38:50;6.40;;;4.43;;
21727;SDS011;11026;50.560;17.852;2023-05-10T09:41:20;6.65;;;4.88;;
21727;SDS011;11026;50.560;17.852;2023-05-10T09:43:49;5.97;;;3.45;;
21727;SDS011;11026;50.560;17.852;2023-05-10T09:48:53;5.15;;;3.90;;
21727;SDS011;11026;50.560;17.852;2023-05-10T09:51:21;6.78;;;3.70;;
21727;SDS011;11026;50.560;17.852;2023-05-10T09:54:08;6.25;;;3.80;;
21727;SDS011;11026;50.560;17.852;2023-05-10T09:56:39;5.18;;;3.80;;
21727;SDS011;11026;50.560;17.852;2023-05-10T09:59:16;11.70;;;4.45;;
21727;SDS011;11026;50.560;17.852;2023-05-10T10:01:51;4.65;;;3.42;;
21727;SDS011;11026;50.560;17.852;2023-05-10T10:04:19;4.53;;;3.95;;
21727;SDS011;11026;50.560;17.852;2023-05-10T10:06:57;4.10;;;3.70;;
21727;SDS011;11026;50.560;17.852;2023-05-10T10:09:33;4.43;;;3.40;;
21727;SDS011;11026;50.560;17.852;2023-05-10T10:12:02;4.50;;;3.33;;
21727;SDS011;11026;50.560;17.852;2023-05-10T10:14:33;4.00;;;3.10;;
21727;SDS011;11026;50.560;17.852;2023-05-10T10:17:01;5.03;;;3.83;;
21727;SDS011;11026;50.560;17.852;2023-05-10T10:19:32;3.90;;;3.45;;
21727;SDS011;11026;50.560;17.852;2023-05-10T10:22:04;4.25;;;3.38;;
21727;SDS011;11026;50.560;17.852;2023-05-10T10:24:38;3.70;;;3.33;;
21727;SDS011;11026;50.560;17.852;2023-05-10T10:27:19;7.53;;;3.70;;
21727;SDS011;11026;50.560;17.852;2023-05-10T10:35:19;3.75;;;3.25;;
21727;SDS011;11026;50.560;17.852;2023-05-10T10:37:47;4.75;;;3.25;;
21727;SDS011;11026;50.560;17.852;2023-05-10T10:40:25;7.63;;;3.60;;
21727;SDS011;11026;50.560;17.852;2023-05-10T10:46:09;4.60;;;3.50;;
21727;SDS011;11026;50.560;17.852;2023-05-10T10:48:50;3.45;;;3.15;;
21727;SDS011;11026;50.560;17.852;2023-05-10T10:51:39;6.65;;;3.60;;
21727;SDS011;11026;50.560;17.852;2023-05-10T10:54:11;4.57;;;4.18;;
21727;SDS011;11026;50.560;17.852;2023-05-10T10:56:39;5.78;;;3.53;;
21727;SDS011;11026;50.560;17.852;2023-05-10T10:59:06;4.90;;;3.95;;
21727;SDS011;11026;50.560;17.852;2023-05-10T11:01:35;4.53;;;3.30;;
21727;SDS011;11026;50.560;17.852;2023-05-10T11:09:09;3.38;;;3.08;;
21727;SDS011;11026;50.560;17.852;2023-05-10T11:11:53;4.55;;;3.22;;
21727;SDS011;11026;50.560;17.852;2023-05-10T11:14:26;4.03;;;3.63;;
21727;SDS011;11026;50.560;17.852;2023-05-10T11:16:56;5.25;;;3.35;;
21727;SDS011;11026;50.560;17.852;2023-05-10T11:19:30;3.53;;;3.20;;
21727;SDS011;11026;50.560;17.852;2023-05-10T11:24:31;3.42;;;3.08;;
21727;SDS011;11026;50.560;17.852;2023-05-10T11:27:00;3.47;;;3.00;;
21727;SDS011;11026;50.560;17.852;2023-05-10T11:29:28;5.43;;;3.08;;
21727;SDS011;11026;50.560;17.852;2023-05-10T11:31:59;3.63;;;3.33;;
21727;SDS011;11026;50.560;17.852;2023-05-10T11:34:28;3.30;;;2.95;;
21727;SDS011;11026;50.560;17.852;2023-05-10T11:36:57;4.97;;;2.67;;
21727;SDS011;11026;50.560;17.852;2023-05-10T11:39:28;3.58;;;3.28;;
21727;SDS011;11026;50.560;17.852;2023-05-10T11:41:57;3.33;;;2.92;;
21727;SDS011;11026;50.560;17.852;2023-05-10T11:44:32;3.38;;;3.08;;
21727;SDS011;11026;50.560;17.852;2023-05-10T11:47:06;3.63;;;3.08;;
21727;SDS011;11026;50.560;17.852;2023-05-10T11:49:34;3.30;;;3.00;;
21727;SDS011;11026;50.560;17.852;2023-05-10T11:52:07;4.95;;;3.33;;
21727;SDS011;11026;50.560;17.852;2023-05-10T11:54:36;4.57;;;3.08;;
21727;SDS011;11026;50.560;17.852;2023-05-10T11:57:03;3.40;;;3.10;;
21727;SDS011;11026;50.560;17.852;2023-05-10T11:59:31;3.10;;;2.25;;
21727;SDS011;11026;50.560;17.852;2023-05-10T12:01:58;4.30;;;2.65;;
21727;SDS011;11026;50.560;17.852;2023-05-10T12:04:28;3.65;;;2.92;;
21727;SDS011;11026;50.560;17.852;2023-05-10T12:06:56;3.15;;;2.83;;
21727;SDS011;11026;50.560;17.852;2023-05-10T12:09:25;3.95;;;3.10;;
21727;SDS011;11026;50.560;17.852;2023-05-10T12:12:08;4.00;;;2.90;;
21727;SDS011;11026;50.560;17.852;2023-05-10T12:14:37;4.35;;;3.15;;
21727;SDS011;11026;50.560;17.852;2023-05-10T12:17:04;5.50;;;2.92;;
21727;SDS011;11026;50.560;17.852;2023-05-10T12:19:38;4.75;;;3.20;;
21727;SDS011;11026;50.560;17.852;2023-05-10T12:24:36;3.63;;;2.45;;
21727;SDS011;11026;50.560;17.852;2023-05-10T12:27:05;3.90;;;3.10;;
21727;SDS011;11026;50.560;17.852;2023-05-10T12:29:51;3.30;;;3.00;;
21727;SDS011;11026;50.560;17.852;2023-05-10T12:32:22;3.78;;;3.10;;
21727;SDS011;11026;50.560;17.852;2023-05-10T12:35:05;4.53;;;3.00;;
21727;SDS011;11026;50.560;17.852;2023-05-10T12:37:33;4.88;;;2.65;;
21727;SDS011;11026;50.560;17.852;2023-05-10T12:40:05;3.75;;;2.85;;
21727;SDS011;11026;50.560;17.852;2023-05-10T12:42:35;4.65;;;3.28;;
21727;SDS011;11026;50.560;17.852;2023-05-10T12:45:04;3.88;;;3.05;;
21727;SDS011;11026;50.560;17.852;2023-05-10T12:47:32;3.08;;;2.67;;
21727;SDS011;11026;50.560;17.852;2023-05-10T12:50:00;4.50;;;3.25;;
21727;SDS011;11026;50.560;17.852;2023-05-10T12:52:28;8.68;;;6.43;;
21727;SDS011;11026;50.560;17.852;2023-05-10T12:54:58;8.50;;;4.82;;
21727;SDS011;11026;50.560;17.852;2023-05-10T12:57:26;3.08;;;2.70;;
21727;SDS011;11026;50.560;17.852;2023-05-10T12:59:54;4.55;;;2.90;;
21727;SDS011;11026;50.560;17.852;2023-05-10T13:02:22;4.22;;;3.53;;
21727;SDS011;11026;50.560;17.852;2023-05-10T13:04:50;4.53;;;3.00;;
21727;SDS011;11026;50.560;17.852;2023-05-10T13:07:17;3.85;;;2.83;;
21727;SDS011;11026;50.560;17.852;2023-05-10T13:09:44;4.95;;;3.40;;
21727;SDS011;11026;50.560;17.852;2023-05-10T13:12:11;4.47;;;3.15;;
21727;SDS011;11026;50.560;17.852;2023-05-10T13:14:38;4.38;;;2.90;;
21727;SDS011;11026;50.560;17.852;2023-05-10T13:17:07;7.50;;;5.53;;
21727;SDS011;11026;50.560;17.852;2023-05-10T13:19:34;3.47;;;2.80;;
21727;SDS011;11026;50.560;17.852;2023-05-10T13:22:02;4.88;;;2.78;;
21727;SDS011;11026;50.560;17.852;2023-05-10T13:24:29;3.10;;;2.80;;
21727;SDS011;11026;50.560;17.852;2023-05-10T13:26:59;2.80;;;2.40;;
21727;SDS011;11026;50.560;17.852;2023-05-10T13:29:26;2.88;;;2.60;;
21727;SDS011;11026;50.560;17.852;2023-05-10T13:31:55;3.88;;;2.45;;
21727;SDS011;11026;50.560;17.852;2023-05-10T13:34:22;5.97;;;2.80;;
21727;SDS011;11026;50.560;17.852;2023-05-10T13:36:50;3.28;;;2.65;;
21727;SDS011;11026;50.560;17.852;2023-05-10T13:39:20;4.82;;;2.60;;
21727;SDS011;11026;50.560;17.852;2023-05-10T13:41:48;2.97;;;2.70;;
21727;SDS011;11026;50.560;17.852;2023-05-10T13:44:15;3.83;;;2.70;;
21727;SDS011;11026;50.560;17.852;2023-05-10T13:46:43;3.78;;;2.65;;
21727;SDS011;11026;50.560;17.852;2023-05-10T13:49:11;3.63;;;2.55;;
21727;SDS011;11026;50.560;17.852;2023-05-10T13:51:38;3.95;;;2.20;;
21727;SDS011;11026;50.560;17.852;2023-05-10T13:54:06;5.53;;;2.33;;
21727;SDS011;11026;50.560;17.852;2023-05-10T13:56:34;4.10;;;2.83;;
21727;SDS011;11026;50.560;17.852;2023-05-10T13:59:01;3.25;;;2.90;;
21727;SDS011;11026;50.560;17.852;2023-05-10T14:01:34;4.78;;;2.90;;
21727;SDS011;11026;50.560;17.852;2023-05-10T14:04:01;3.95;;;2.40;;
21727;SDS011;11026;50.560;17.852;2023-05-10T14:06:29;3.05;;;2.53;;
21727;SDS011;11026;50.560;17.852;2023-05-10T14:08:58;4.90;;;2.45;;
21727;SDS011;11026;50.560;17.852;2023-05-10T14:11:25;3.80;;;2.90;;
21727;SDS011;11026;50.560;17.852;2023-05-10T14:13:52;5.07;;;2.80;;
21727;SDS011;11026;50.560;17.852;2023-05-10T14:16:21;4.78;;;2.88;;
21727;SDS011;11026;50.560;17.852;2023-05-10T14:18:50;4.60;;;2.88;;
21727;SDS011;11026;50.560;17.852;2023-05-10T14:21:18;3.50;;;3.20;;
21727;SDS011;11026;50.560;17.852;2023-05-10T14:23:45;5.53;;;2.78;;
21727;SDS011;11026;50.560;17.852;2023-05-10T14:26:12;3.78;;;2.60;;
21727;SDS011;11026;50.560;17.852;2023-05-10T14:28:40;8.43;;;2.95;;
21727;SDS011;11026;50.560;17.852;2023-05-10T14:31:08;3.15;;;2.50;;
21727;SDS011;11026;50.560;17.852;2023-05-10T14:33:36;2.88;;;2.63;;
21727;SDS011;11026;50.560;17.852;2023-05-10T14:36:04;2.85;;;2.47;;
21727;SDS011;11026;50.560;17.852;2023-05-10T14:38:32;7.50;;;3.33;;
21727;SDS011;11026;50.560;17.852;2023-05-10T14:41:00;5.65;;;3.20;;
21727;SDS011;11026;50.560;17.852;2023-05-10T14:43:28;5.88;;;2.92;;
21727;SDS011;11026;50.560;17.852;2023-05-10T14:45:55;5.93;;;3.53;;
21727;SDS011;11026;50.560;17.852;2023-05-10T14:48:23;3.50;;;3.00;;
21727;SDS011;11026;50.560;17.852;2023-05-10T14:50:51;3.90;;;3.00;;
21727;SDS011;11026;50.560;17.852;2023-05-10T14:53:19;5.28;;;3.03;;
21727;SDS011;11026;50.560;17.852;2023-05-10T14:55:47;4.35;;;2.83;;
21727;SDS011;11026;50.560;17.852;2023-05-10T14:58:14;3.95;;;2.60;;
21727;SDS011;11026;50.560;17.852;2023-05-10T15:00:44;3.30;;;2.65;;
21727;SDS011;11026;50.560;17.852;2023-05-10T15:03:11;4.05;;;2.60;;
21727;SDS011;11026;50.560;17.852;2023-05-10T15:05:39;5.97;;;2.90;;
21727;SDS011;11026;50.560;17.852;2023-05-10T15:08:07;3.30;;;2.80;;
21727;SDS011;11026;50.560;17.852;2023-05-10T15:10:35;3.45;;;2.78;;
21727;SDS011;11026;50.560;17.852;2023-05-10T15:13:04;3.45;;;2.70;;
21727;SDS011;11026;50.560;17.852;2023-05-10T15:15:32;3.00;;;2.70;;
21727;SDS011;11026;50.560;17.852;2023-05-10T15:17:59;3.70;;;2.90;;
21727;SDS011;11026;50.560;17.852;2023-05-10T15:20:28;4.93;;;3.28;;